Time;durP1;ratioP1;P1;durP2;ratioP2;P2;SDS_P1;SDS_P2;PMS_P1;PMS_P2;Temp;Humidity;BMP_temperature;BMP_pressure;BME280_temperature;BME280_humidity;BME280_pressure;Samples;Min_cycle;Max_cycle;Signal;HPM_P1;HPM_P2
2023/12/14 00:01:15;;;;;;;103.40;51.10;;;;;;;;;;5026393;28;20022;-84
2023/12/14 00:03:41;;;;;;;106.55;51.45;;;;;;;;;;5013118;28;20404;-84
2023/12/14 00:06:12;;;;;;;98.65;47.08;;;;;;;;;;5026973;28;20017;-85
2023/12/14 00:08:37;;;;;;;105.82;49.47;;;;;;;;;;5001285;28;20014;-84
2023/12/14 00:11:06;;;;;;;115.88;51.03;;;;;;;;;;5013056;28;20510;-84
2023/12/14 00:13:33;;;;;;;105.45;46.00;;;;;;;;;;5012776;28;20056;-84
2023/12/14 00:15:59;;;;;;;113.15;51.97;;;;;;;;;;5014105;28;20013;-85
2023/12/14 00:18:24;;;;;;;104.07;47.17;;;;;;;;;;5008280;28;20544;-85
2023/12/14 00:20:49;;;;;;;105.78;51.28;;;;;;;;;;5011857;28;20032;-84
2023/12/14 00:23:15;;;;;;;114.68;52.65;;;;;;;;;;5009420;28;20026;-85
2023/12/14 00:25:40;;;;;;;120.13;49.72;;;;;;;;;;5009046;28;20020;-85
2023/12/14 00:28:05;;;;;;;118.50;50.58;;;;;;;;;;5019969;28;20022;-84
2023/12/14 00:30:32;;;;;;;113.63;48.70;;;;;;;;;;4992088;28;20033;-85
2023/12/14 00:32:57;;;;;;;113.18;48.05;;;;;;;;;;5016948;28;20175;-84
2023/12/14 00:35:22;;;;;;;124.57;50.35;;;;;;;;;;5029986;28;20446;-85
2023/12/14 00:37:48;;;;;;;118.43;50.92;;;;;;;;;;5013290;28;20041;-84
2023/12/14 00:40:13;;;;;;;134.55;54.05;;;;;;;;;;5029606;28;20484;-83
2023/12/14 00:42:38;;;;;;;130.07;50.92;;;;;;;;;;5029601;28;20025;-83
2023/12/14 00:45:04;;;;;;;127.95;52.85;;;;;;;;;;5027720;28;20442;-84
2023/12/14 00:47:29;;;;;;;116.07;46.33;;;;;;;;;;5028329;28;20029;-83
2023/12/14 00:49:55;;;;;;;133.10;54.55;;;;;;;;;;5015707;28;20152;-83
2023/12/14 00:52:20;;;;;;;136.00;52.85;;;;;;;;;;5012064;28;20022;-84
2023/12/14 00:54:45;;;;;;;125.10;49.83;;;;;;;;;;5011996;28;20042;-83
2023/12/14 00:57:11;;;;;;;135.57;52.63;;;;;;;;;;5011715;28;20108;-84
2023/12/14 00:59:36;;;;;;;134.15;54.13;;;;;;;;;;5016559;28;20393;-84
2023/12/14 01:02:01;;;;;;;123.88;51.60;;;;;;;;;;5029180;28;20017;-83
2023/12/14 01:04:26;;;;;;;138.75;54.60;;;;;;;;;;5026513;28;20022;-84
2023/12/14 01:06:52;;;;;;;123.47;50.17;;;;;;;;;;5011536;28;20422;-83
2023/12/14 01:09:17;;;;;;;122.72;51.08;;;;;;;;;;5011688;28;20047;-83
2023/12/14 01:11:42;;;;;;;122.05;50.38;;;;;;;;;;5010531;28;20032;-84
2023/12/14 01:14:09;;;;;;;118.55;48.88;;;;;;;;;;5029080;28;20471;-83
2023/12/14 01:16:34;;;;;;;119.28;51.67;;;;;;;;;;5029162;28;20021;-83
2023/12/14 01:19:00;;;;;;;130.88;51.50;;;;;;;;;;5011536;28;20218;-83
2023/12/14 01:21:25;;;;;;;137.05;53.40;;;;;;;;;;5024370;28;20383;-83
2023/12/14 01:23:52;;;;;;;118.57;51.17;;;;;;;;;;5029212;28;20471;-84
2023/12/14 01:26:18;;;;;;;115.78;47.10;;;;;;;;;;5028863;28;20033;-83
2023/12/14 01:28:43;;;;;;;114.03;45.80;;;;;;;;;;5029609;28;20037;-83
2023/12/14 01:31:08;;;;;;;116.47;43.97;;;;;;;;;;5028637;28;20087;-83
2023/12/14 01:33:34;;;;;;;124.95;48.80;;;;;;;;;;5011030;28;20187;-83
2023/12/14 01:35:59;;;;;;;118.22;45.25;;;;;;;;;;5017601;28;20087;-84
2023/12/14 01:38:24;;;;;;;136.93;46.28;;;;;;;;;;5027970;28;20131;-84
2023/12/14 01:40:50;;;;;;;120.38;45.35;;;;;;;;;;5007106;28;20022;-84
2023/12/14 01:43:15;;;;;;;144.68;49.65;;;;;;;;;;5009440;28;20022;-84
2023/12/14 01:45:40;;;;;;;161.00;51.97;;;;;;;;;;5012143;28;20033;-84
2023/12/14 01:48:06;;;;;;;178.75;55.08;;;;;;;;;;5028597;28;20021;-83
2023/12/14 01:50:31;;;;;;;195.27;66.13;;;;;;;;;;5010316;28;20033;-84
2023/12/14 01:52:56;;;;;;;175.88;55.92;;;;;;;;;;5010795;28;20029;-84
2023/12/14 01:55:22;;;;;;;179.27;51.28;;;;;;;;;;5028476;28;20025;-83
2023/12/14 01:57:47;;;;;;;183.75;55.28;;;;;;;;;;5025698;28;20068;-83
2023/12/14 02:00:18;;;;;;;204.50;57.80;;;;;;;;;;5010606;28;20228;-84
2023/12/14 02:02:43;;;;;;;176.48;52.45;;;;;;;;;;5028221;28;20026;-83
2023/12/14 02:05:08;;;;;;;211.10;61.28;;;;;;;;;;5010595;28;20029;-83
2023/12/14 02:07:34;;;;;;;210.60;55.35;;;;;;;;;;5026548;28;20026;-83
2023/12/14 02:09:59;;;;;;;185.45;49.10;;;;;;;;;;5028325;28;20113;-84
2023/12/14 02:12:25;;;;;;;272.27;60.28;;;;;;;;;;5014692;28;20025;-84
2023/12/14 02:14:50;;;;;;;189.55;49.28;;;;;;;;;;5010470;28;20120;-84
2023/12/14 02:17:15;;;;;;;235.88;47.75;;;;;;;;;;5027927;28;20136;-84
2023/12/14 02:19:41;;;;;;;206.48;51.72;;;;;;;;;;5027786;28;20021;-84
2023/12/14 02:22:06;;;;;;;240.65;55.10;;;;;;;;;;5027422;28;20024;-84
2023/12/14 02:24:33;;;;;;;216.75;52.20;;;;;;;;;;5010877;28;20471;-84
2023/12/14 02:26:58;;;;;;;318.48;73.90;;;;;;;;;;5009886;28;20032;-84
2023/12/14 02:29:24;;;;;;;317.67;65.72;;;;;;;;;;5028101;28;20144;-84
2023/12/14 02:31:49;;;;;;;252.82;56.80;;;;;;;;;;5027442;28;20081;-84
2023/12/14 02:34:14;;;;;;;274.85;61.30;;;;;;;;;;5022369;28;20037;-83
2023/12/14 02:36:39;;;;;;;300.60;70.38;;;;;;;;;;5011083;28;20025;-83
2023/12/14 02:39:05;;;;;;;370.42;54.90;;;;;;;;;;5027123;28;20095;-83
2023/12/14 02:41:30;;;;;;;407.10;61.75;;;;;;;;;;5027637;28;20018;-84
2023/12/14 02:43:55;;;;;;;343.15;55.63;;;;;;;;;;5024603;28;20033;-83
2023/12/14 02:46:21;;;;;;;296.38;51.55;;;;;;;;;;5006807;28;20022;-83
2023/12/14 02:48:47;;;;;;;320.08;50.83;;;;;;;;;;5012203;28;20123;-84
2023/12/14 02:51:13;;;;;;;322.10;44.28;;;;;;;;;;5009541;28;20029;-83
2023/12/14 02:53:38;;;;;;;317.60;52.25;;;;;;;;;;5026622;28;20471;-84
2023/12/14 02:56:04;;;;;;;316.63;51.28;;;;;;;;;;5010226;28;20036;-83
2023/12/14 02:58:29;;;;;;;281.85;46.45;;;;;;;;;;5008972;28;20040;-83
2023/12/14 03:00:54;;;;;;;285.65;42.15;;;;;;;;;;5024367;28;20048;-83
2023/12/14 03:03:20;;;;;;;190.88;39.53;;;;;;;;;;5009573;28;20029;-84
2023/12/14 03:05:45;;;;;;;152.25;41.05;;;;;;;;;;5012541;28;20032;-83
2023/12/14 03:08:11;;;;;;;140.98;41.47;;;;;;;;;;5009845;28;20033;-84
2023/12/14 03:10:36;;;;;;;119.82;40.42;;;;;;;;;;5019141;28;20395;-84
2023/12/14 03:13:01;;;;;;;115.47;37.63;;;;;;;;;;5027335;28;20478;-83
2023/12/14 03:15:26;;;;;;;113.72;36.83;;;;;;;;;;5027385;28;20091;-84
2023/12/14 03:17:52;;;;;;;133.32;41.00;;;;;;;;;;5026791;28;20022;-84
2023/12/14 03:20:17;;;;;;;133.73;40.55;;;;;;;;;;5026876;28;20029;-83
2023/12/14 03:22:43;;;;;;;135.88;39.15;;;;;;;;;;5027538;28;20100;-83
2023/12/14 03:25:09;;;;;;;130.98;37.38;;;;;;;;;;5027194;28;20022;-84
2023/12/14 03:27:35;;;;;;;122.97;37.13;;;;;;;;;;5009398;28;20032;-84
2023/12/14 03:30:00;;;;;;;121.57;37.15;;;;;;;;;;5009773;28;20034;-84
2023/12/14 03:32:25;;;;;;;124.28;37.92;;;;;;;;;;5026740;28;20410;-83
2023/12/14 03:34:51;;;;;;;130.48;36.90;;;;;;;;;;5009539;28;20032;-84
2023/12/14 03:37:16;;;;;;;130.60;37.28;;;;;;;;;;5030704;28;20482;-84
2023/12/14 03:39:41;;;;;;;140.70;38.25;;;;;;;;;;5029884;28;20034;-83
2023/12/14 03:42:07;;;;;;;121.20;36.13;;;;;;;;;;5030371;28;20061;-84
2023/12/14 03:44:32;;;;;;;127.88;39.42;;;;;;;;;;5013663;28;20029;-83
2023/12/14 03:46:57;;;;;;;131.23;41.92;;;;;;;;;;5016011;28;20021;-84
2023/12/14 03:49:23;;;;;;;120.70;39.97;;;;;;;;;;5013544;28;20026;-84
2023/12/14 03:51:49;;;;;;;125.93;41.75;;;;;;;;;;5030386;28;20034;-84
2023/12/14 03:54:14;;;;;;;113.63;38.88;;;;;;;;;;5012921;28;20075;-84
2023/12/14 03:56:39;;;;;;;114.13;39.90;;;;;;;;;;5030884;28;20029;-84
2023/12/14 03:59:05;;;;;;;129.27;42.60;;;;;;;;;;5012635;28;20071;-83
2023/12/14 04:01:30;;;;;;;128.60;42.35;;;;;;;;;;5030033;28;20539;-83
2023/12/14 04:03:55;;;;;;;129.40;42.28;;;;;;;;;;5012559;28;20023;-83
2023/12/14 04:06:21;;;;;;;116.70;39.17;;;;;;;;;;5030319;28;20087;-84
2023/12/14 04:08:46;;;;;;;127.22;39.38;;;;;;;;;;5023286;28;20034;-83
2023/12/14 04:11:11;;;;;;;133.02;41.53;;;;;;;;;;5023195;28;20053;-83
2023/12/14 04:13:38;;;;;;;127.93;41.63;;;;;;;;;;5025816;28;20025;-83
2023/12/14 04:16:03;;;;;;;126.40;40.70;;;;;;;;;;5005979;28;20098;-83
2023/12/14 04:18:29;;;;;;;126.40;40.97;;;;;;;;;;5026038;28;20163;-84
2023/12/14 04:20:54;;;;;;;202.30;61.15;;;;;;;;;;5024164;28;20026;-84
2023/12/14 04:23:19;;;;;;;165.98;47.95;;;;;;;;;;5010810;28;20033;-84
2023/12/14 04:25:45;;;;;;;161.30;50.10;;;;;;;;;;5028263;28;20025;-84
2023/12/14 04:28:10;;;;;;;162.18;49.30;;;;;;;;;;5029574;28;20380;-84
2023/12/14 04:30:35;;;;;;;169.50;53.10;;;;;;;;;;5012310;28;20017;-84
2023/12/14 04:33:00;;;;;;;145.50;47.92;;;;;;;;;;4998520;28;20033;-85
2023/12/14 04:35:26;;;;;;;146.23;50.92;;;;;;;;;;4992319;28;20495;-84
2023/12/14 04:37:51;;;;;;;124.38;45.80;;;;;;;;;;4976294;28;20026;-85
2023/12/14 04:40:16;;;;;;;121.10;44.65;;;;;;;;;;4992696;28;20041;-84
2023/12/14 04:42:42;;;;;;;122.45;46.35;;;;;;;;;;4992221;28;20018;-84
2023/12/14 04:45:09;;;;;;;104.75;41.67;;;;;;;;;;4990371;28;20619;-84
2023/12/14 04:47:34;;;;;;;113.50;47.58;;;;;;;;;;5009358;28;20060;-85
2023/12/14 04:49:59;;;;;;;383.67;146.02;;;;;;;;;;4995683;28;20121;-84
2023/12/14 04:52:25;;;;;;;233.93;98.47;;;;;;;;;;4992094;28;20018;-85
2023/12/14 04:54:50;;;;;;;375.27;140.50;;;;;;;;;;5009888;28;20026;-85
2023/12/14 04:57:15;;;;;;;272.48;100.95;;;;;;;;;;5010094;28;20026;-85
2023/12/14 04:59:42;;;;;;;530.35;188.65;;;;;;;;;;5009487;28;20103;-84
2023/12/14 05:02:07;;;;;;;157.48;61.13;;;;;;;;;;4992136;28;20080;-85
2023/12/14 05:04:32;;;;;;;333.75;110.75;;;;;;;;;;4996829;28;20049;-85
2023/12/14 05:06:57;;;;;;;121.93;46.67;;;;;;;;;;5010137;28;20021;-85
2023/12/14 05:09:23;;;;;;;105.45;43.70;;;;;;;;;;5006543;28;20022;-85
2023/12/14 05:11:49;;;;;;;100.65;41.92;;;;;;;;;;5009293;28;20096;-85
2023/12/14 05:14:14;;;;;;;118.97;46.55;;;;;;;;;;4991894;28;20033;-85
2023/12/14 05:16:39;;;;;;;246.98;89.95;;;;;;;;;;4991738;28;20029;-84
2023/12/14 05:19:04;;;;;;;182.70;76.15;;;;;;;;;;5009432;28;20388;-85
2023/12/14 05:21:30;;;;;;;155.30;67.38;;;;;;;;;;4991347;28;20113;-84
2023/12/14 05:23:55;;;;;;;280.10;99.88;;;;;;;;;;4991547;28;20022;-84
2023/12/14 05:26:20;;;;;;;172.18;64.70;;;;;;;;;;5009121;28;20026;-84
2023/12/14 05:28:46;;;;;;;168.45;73.72;;;;;;;;;;5009291;28;20013;-85
2023/12/14 05:31:11;;;;;;;221.23;89.82;;;;;;;;;;4997888;28;20065;-84
2023/12/14 05:33:37;;;;;;;149.82;63.58;;;;;;;;;;5007512;28;20041;-84
2023/12/14 05:36:05;;;;;;;181.20;75.85;;;;;;;;;;5008883;28;20014;-84
2023/12/14 05:38:30;;;;;;;184.45;82.85;;;;;;;;;;4991463;28;20558;-86
2023/12/14 05:40:55;;;;;;;234.38;102.75;;;;;;;;;;5007740;28;20026;-87
2023/12/14 05:43:20;;;;;;;125.05;57.00;;;;;;;;;;5008675;28;20304;-86
2023/12/14 05:45:46;;;;;;;114.03;50.20;;;;;;;;;;4990998;28;20029;-86
2023/12/14 05:48:11;;;;;;;168.10;72.97;;;;;;;;;;5007940;28;20014;-84
2023/12/14 05:50:36;;;;;;;263.25;105.22;;;;;;;;;;5005096;28;20514;-84
2023/12/14 05:53:01;;;;;;;142.57;61.17;;;;;;;;;;4991054;28;20033;-85
2023/12/14 05:55:27;;;;;;;149.82;63.15;;;;;;;;;;5008756;28;20018;-86
2023/12/14 05:57:54;;;;;;;163.32;72.43;;;;;;;;;;5001463;28;20026;-86
2023/12/14 06:00:19;;;;;;;113.63;51.67;;;;;;;;;;5007025;28;20507;-86
2023/12/14 06:02:44;;;;;;;111.47;53.17;;;;;;;;;;4995741;28;20088;-86
2023/12/14 06:05:11;;;;;;;145.88;70.85;;;;;;;;;;5007109;28;20018;-86
2023/12/14 06:07:37;;;;;;;141.07;69.80;;;;;;;;;;5007844;28;20380;-86
2023/12/14 06:10:03;;;;;;;129.75;62.03;;;;;;;;;;5008540;28;20018;-86
2023/12/14 06:12:28;;;;;;;120.55;58.88;;;;;;;;;;4991627;28;20032;-85
2023/12/14 06:14:54;;;;;;;116.28;57.45;;;;;;;;;;5007920;28;20025;-86
2023/12/14 06:17:19;;;;;;;117.57;61.53;;;;;;;;;;5007823;28;20037;-86
2023/12/14 06:19:44;;;;;;;120.90;60.22;;;;;;;;;;4989966;28;20734;-86
2023/12/14 06:22:10;;;;;;;140.05;72.47;;;;;;;;;;5007314;28;20392;-86
2023/12/14 06:24:35;;;;;;;129.48;68.13;;;;;;;;;;5014999;28;20101;-85
2023/12/14 06:27:00;;;;;;;144.02;79.97;;;;;;;;;;4997826;28;20024;-86
2023/12/14 06:29:25;;;;;;;178.73;93.35;;;;;;;;;;4998634;28;20092;-86
2023/12/14 06:31:51;;;;;;;164.63;82.95;;;;;;;;;;5000954;28;20034;-86
2023/12/14 06:34:16;;;;;;;158.80;82.95;;;;;;;;;;5017510;28;20060;-86
2023/12/14 06:36:45;;;;;;;354.60;210.50;;;;;;;;;;5017506;28;20475;-86
2023/12/14 06:39:10;;;;;;;265.80;113.78;;;;;;;;;;5016891;28;20029;-86
2023/12/14 06:41:36;;;;;;;184.10;93.55;;;;;;;;;;5027718;28;20025;-84
2023/12/14 06:44:01;;;;;;;187.05;100.13;;;;;;;;;;5027396;28;20025;-84
2023/12/14 06:46:26;;;;;;;231.20;125.00;;;;;;;;;;5027416;28;20379;-83
2023/12/14 06:48:52;;;;;;;283.20;144.80;;;;;;;;;;5009946;28;20024;-84
2023/12/14 06:51:17;;;;;;;193.77;102.22;;;;;;;;;;5015568;28;20024;-84
2023/12/14 06:53:43;;;;;;;202.57;106.68;;;;;;;;;;5017337;28;20043;-84
2023/12/14 06:56:10;;;;;;;226.57;122.57;;;;;;;;;;5017856;28;20020;-84
2023/12/14 06:58:36;;;;;;;244.95;133.30;;;;;;;;;;5017199;28;20060;-84
2023/12/14 07:01:01;;;;;;;202.75;109.93;;;;;;;;;;5027288;28;20053;-84
2023/12/14 07:03:27;;;;;;;231.20;145.02;;;;;;;;;;5027008;28;20079;-84
2023/12/14 07:05:52;;;;;;;257.00;135.10;;;;;;;;;;5017773;28;20026;-85
2023/12/14 07:08:17;;;;;;;475.80;217.35;;;;;;;;;;5017495;28;20104;-85
2023/12/14 07:10:42;;;;;;;153.65;82.53;;;;;;;;;;5035105;28;20035;-84
2023/12/14 07:13:08;;;;;;;196.80;111.82;;;;;;;;;;5037518;28;20022;-84
2023/12/14 07:15:33;;;;;;;174.48;94.65;;;;;;;;;;5030777;28;20034;-85
2023/12/14 07:17:59;;;;;;;231.85;122.45;;;;;;;;;;5031189;28;20024;-84
2023/12/14 07:20:25;;;;;;;188.90;106.10;;;;;;;;;;5036937;28;20029;-85
2023/12/14 07:22:50;;;;;;;235.55;127.28;;;;;;;;;;5030930;28;20080;-85
2023/12/14 07:25:15;;;;;;;251.73;130.55;;;;;;;;;;5030260;28;20535;-85
2023/12/14 07:27:40;;;;;;;254.93;148.48;;;;;;;;;;5021388;28;20021;-85
2023/12/14 07:30:06;;;;;;;354.52;206.23;;;;;;;;;;5039836;28;20032;-85
2023/12/14 07:32:31;;;;;;;291.27;158.73;;;;;;;;;;5020101;28;20442;-84
2023/12/14 07:34:56;;;;;;;459.52;261.67;;;;;;;;;;5030594;28;20052;-85
2023/12/14 07:37:22;;;;;;;434.95;257.15;;;;;;;;;;5037421;28;20056;-85
2023/12/14 07:39:47;;;;;;;420.23;289.33;;;;;;;;;;5031066;28;20048;-85
2023/12/14 07:42:19;;;;;;;495.17;295.70;;;;;;;;;;5019773;28;20060;-85
2023/12/14 07:44:44;;;;;;;329.88;200.27;;;;;;;;;;5012978;28;20017;-85
2023/12/14 07:47:09;;;;;;;425.35;249.13;;;;;;;;;;5018250;28;20140;-85
2023/12/14 07:49:35;;;;;;;431.65;253.20;;;;;;;;;;5029752;28;20029;-85
2023/12/14 07:52:00;;;;;;;211.27;126.82;;;;;;;;;;5011874;28;20463;-85
2023/12/14 07:54:26;;;;;;;276.23;155.73;;;;;;;;;;5033882;28;20025;-85
2023/12/14 07:56:52;;;;;;;267.08;155.95;;;;;;;;;;5017811;28;20120;-84
2023/12/14 07:59:17;;;;;;;310.83;190.57;;;;;;;;;;5029920;28;20125;-85
2023/12/14 08:01:42;;;;;;;313.92;187.43;;;;;;;;;;5029626;28;20049;-85
2023/12/14 08:04:08;;;;;;;333.05;195.60;;;;;;;;;;5018277;28;20041;-86
2023/12/14 08:06:33;;;;;;;341.02;173.60;;;;;;;;;;5037921;28;20017;-86
2023/12/14 08:08:58;;;;;;;347.52;185.63;;;;;;;;;;5014085;28;20025;-86
2023/12/14 08:11:24;;;;;;;538.28;307.80;;;;;;;;;;5012397;28;20060;-87
2023/12/14 08:13:49;;;;;;;369.02;196.55;;;;;;;;;;5029379;28;20437;-87
2023/12/14 08:16:17;;;;;;;301.08;160.50;;;;;;;;;;5030941;28;20423;-86
2023/12/14 08:18:44;;;;;;;224.35;125.43;;;;;;;;;;5001431;28;20152;-87
2023/12/14 08:21:09;;;;;;;322.05;178.85;;;;;;;;;;5030199;28;20029;-87
2023/12/14 08:23:36;;;;;;;369.60;218.25;;;;;;;;;;5012843;28;20029;-86
2023/12/14 08:26:01;;;;;;;310.92;199.75;;;;;;;;;;5030417;28;20033;-87
2023/12/14 08:28:26;;;;;;;530.42;290.85;;;;;;;;;;5030004;28;20024;-87
2023/12/14 08:30:52;;;;;;;363.17;217.70;;;;;;;;;;5013045;28;20026;-86
2023/12/14 08:33:17;;;;;;;333.02;210.65;;;;;;;;;;5020672;28;20201;-87
2023/12/14 08:35:43;;;;;;;333.63;208.77;;;;;;;;;;5031325;28;20025;-87
2023/12/14 08:38:09;;;;;;;313.50;209.05;;;;;;;;;;5030586;28;20121;-87
2023/12/14 08:40:35;;;;;;;431.77;295.83;;;;;;;;;;5013448;28;20473;-87
2023/12/14 08:43:00;;;;;;;395.00;250.48;;;;;;;;;;5014584;28;20029;-87
2023/12/14 08:45:25;;;;;;;340.25;218.00;;;;;;;;;;5017935;28;20022;-87
2023/12/14 08:47:51;;;;;;;295.75;194.40;;;;;;;;;;5031784;28;20080;-87
2023/12/14 08:50:16;;;;;;;279.90;173.05;;;;;;;;;;5015199;28;20025;-87
2023/12/14 08:52:41;;;;;;;255.93;162.70;;;;;;;;;;5018637;28;20101;-88
2023/12/14 08:55:07;;;;;;;251.40;163.85;;;;;;;;;;5015501;28;20025;-88
2023/12/14 08:57:33;;;;;;;245.68;150.90;;;;;;;;;;5030337;28;20033;-88
2023/12/14 08:59:58;;;;;;;232.95;145.20;;;;;;;;;;4997692;28;20391;-88
2023/12/14 09:02:23;;;;;;;187.82;128.18;;;;;;;;;;5012790;28;20021;-88
2023/12/14 09:04:49;;;;;;;158.90;110.00;;;;;;;;;;5013240;28;20025;-87
2023/12/14 09:07:14;;;;;;;208.88;139.70;;;;;;;;;;5015240;28;20025;-87
2023/12/14 09:09:39;;;;;;;168.15;109.00;;;;;;;;;;5033188;28;20098;-87
2023/12/14 09:12:05;;;;;;;109.20;70.72;;;;;;;;;;5015858;28;20433;-88
2023/12/14 09:14:30;;;;;;;188.07;114.75;;;;;;;;;;5019868;28;20035;-88
2023/12/14 09:16:55;;;;;;;159.75;98.28;;;;;;;;;;5015868;28;20021;-87
2023/12/14 09:19:21;;;;;;;248.13;134.50;;;;;;;;;;5013963;28;20064;-88
2023/12/14 09:21:46;;;;;;;134.85;96.20;;;;;;;;;;4995107;28;20022;-88
2023/12/14 09:24:12;;;;;;;112.43;81.45;;;;;;;;;;4999135;28;20032;-87
2023/12/14 09:26:37;;;;;;;203.88;123.22;;;;;;;;;;5029555;28;20091;-87
2023/12/14 09:29:02;;;;;;;160.15;100.78;;;;;;;;;;5032456;28;20025;-87
2023/12/14 09:31:28;;;;;;;113.65;75.18;;;;;;;;;;5030996;28;20025;-88
2023/12/14 09:33:53;;;;;;;152.40;95.75;;;;;;;;;;5014959;28;20277;-88
2023/12/14 09:36:18;;;;;;;199.30;126.45;;;;;;;;;;5017831;28;20467;-87
2023/12/14 09:38:45;;;;;;;157.65;99.05;;;;;;;;;;5034664;28;20048;-87
2023/12/14 09:41:10;;;;;;;155.50;99.20;;;;;;;;;;4997698;28;20021;-88
2023/12/14 09:43:36;;;;;;;138.68;94.45;;;;;;;;;;5013627;28;20121;-87
2023/12/14 09:46:01;;;;;;;115.55;78.25;;;;;;;;;;5033778;28;20041;-86
2023/12/14 09:48:28;;;;;;;196.20;124.55;;;;;;;;;;5032256;28;20040;-87
2023/12/14 09:50:53;;;;;;;100.53;64.72;;;;;;;;;;5015361;28;20040;-85
2023/12/14 09:53:18;;;;;;;114.82;69.97;;;;;;;;;;5033798;28;20410;-86
2023/12/14 09:55:44;;;;;;;72.10;50.85;;;;;;;;;;4998485;28;20057;-86
2023/12/14 09:58:10;;;;;;;85.18;58.00;;;;;;;;;;5014535;28;20033;-87
2023/12/14 10:00:40;;;;;;;100.07;67.72;;;;;;;;;;5010809;28;20022;-86
2023/12/14 10:03:22;;;;;;;108.55;68.28;;;;;;;;;;5010102;28;20021;-86
2023/12/14 10:05:48;;;;;;;84.20;57.75;;;;;;;;;;5029608;28;20439;-87
2023/12/14 10:08:14;;;;;;;92.80;62.05;;;;;;;;;;5013993;28;20049;-86
2023/12/14 10:10:39;;;;;;;79.53;45.72;;;;;;;;;;5025001;28;20566;-88
2023/12/14 10:13:05;;;;;;;57.42;34.88;;;;;;;;;;5029586;28;20026;-88
2023/12/14 10:15:39;;;;;;;30.80;22.70;;;;;;;;;;5010542;28;20078;-88
2023/12/14 10:18:06;;;;;;;37.30;25.88;;;;;;;;;;5032905;28;20029;-88
2023/12/14 10:20:31;;;;;;;52.38;31.20;;;;;;;;;;5020395;28;20026;-88
2023/12/14 10:22:58;;;;;;;43.88;27.17;;;;;;;;;;5036259;28;20326;-88
2023/12/14 10:25:23;;;;;;;40.00;28.45;;;;;;;;;;5030899;28;20185;-88
2023/12/14 10:27:52;;;;;;;47.80;37.30;;;;;;;;;;5013536;28;20021;-88
2023/12/14 10:30:18;;;;;;;76.82;50.20;;;;;;;;;;5022048;28;20479;-88
2023/12/14 10:32:46;;;;;;;110.63;81.97;;;;;;;;;;5033973;28;20033;-88
2023/12/14 10:35:12;;;;;;;98.40;66.65;;;;;;;;;;5018285;28;20087;-89
2023/12/14 10:37:38;;;;;;;100.78;73.22;;;;;;;;;;5011048;28;20399;-89
2023/12/14 10:40:07;;;;;;;96.07;66.57;;;;;;;;;;5016220;28;20127;-89
2023/12/14 10:42:35;;;;;;;79.80;54.25;;;;;;;;;;5023114;28;20259;-89
2023/12/14 10:45:02;;;;;;;102.43;72.85;;;;;;;;;;5032526;28;20494;-89
2023/12/14 10:47:27;;;;;;;88.65;57.97;;;;;;;;;;5006588;28;20051;-90
2023/12/14 10:49:54;;;;;;;115.00;72.63;;;;;;;;;;5019331;28;20047;-89
2023/12/14 10:52:20;;;;;;;138.85;79.55;;;;;;;;;;5007639;28;20018;-89
2023/12/14 10:54:46;;;;;;;62.88;45.38;;;;;;;;;;5017802;28;20087;-89
2023/12/14 10:57:13;;;;;;;150.73;88.63;;;;;;;;;;5034188;28;20033;-89
2023/12/14 10:59:38;;;;;;;133.27;76.40;;;;;;;;;;5045299;28;20056;-88
2023/12/14 11:02:11;;;;;;;121.05;76.03;;;;;;;;;;5035267;28;20014;-88
2023/12/14 11:04:54;;;;;;;125.72;79.28;;;;;;;;;;5042564;28;20013;-89
2023/12/14 11:07:44;;;;;;;107.85;65.18;;;;;;;;;;5036220;28;20029;-88
2023/12/14 11:10:10;;;;;;;108.43;53.92;;;;;;;;;;5017294;28;20075;-89
2023/12/14 11:12:35;;;;;;;84.40;47.88;;;;;;;;;;5033930;28;20014;-89
2023/12/14 11:15:01;;;;;;;75.05;44.47;;;;;;;;;;5019840;28;20032;-89
2023/12/14 11:17:29;;;;;;;82.55;48.25;;;;;;;;;;5030847;28;20075;-88
2023/12/14 11:19:54;;;;;;;135.05;80.30;;;;;;;;;;5024560;28;20037;-88
2023/12/14 11:22:24;;;;;;;88.00;57.03;;;;;;;;;;5032329;28;20025;-88
2023/12/14 11:24:51;;;;;;;180.23;94.68;;;;;;;;;;5033482;28;20077;-89
2023/12/14 11:27:19;;;;;;;81.97;51.60;;;;;;;;;;5029069;28;20021;-89
2023/12/14 11:29:45;;;;;;;69.27;46.80;;;;;;;;;;5027704;28;20021;-89
2023/12/14 11:32:11;;;;;;;80.30;50.55;;;;;;;;;;5023241;28;20045;-89
2023/12/14 11:34:38;;;;;;;71.38;46.60;;;;;;;;;;5016243;28;20032;-89
2023/12/14 11:37:06;;;;;;;62.50;42.10;;;;;;;;;;5033957;28;20108;-89
2023/12/14 11:39:31;;;;;;;83.70;68.22;;;;;;;;;;5032175;28;20029;-89
2023/12/14 11:42:03;;;;;;;60.95;44.08;;;;;;;;;;5012879;28;20016;-90
2023/12/14 11:44:30;;;;;;;54.67;41.70;;;;;;;;;;5028781;28;20101;-88
2023/12/14 11:46:56;;;;;;;87.97;57.45;;;;;;;;;;4999593;28;20519;-89
2023/12/14 11:49:21;;;;;;;80.97;49.42;;;;;;;;;;5015461;28;20053;-89
2023/12/14 11:51:47;;;;;;;89.97;53.25;;;;;;;;;;5035967;28;20609;-89
2023/12/14 11:54:13;;;;;;;84.20;47.15;;;;;;;;;;5021840;28;20046;-89
2023/12/14 11:56:45;;;;;;;124.13;69.18;;;;;;;;;;5014106;28;20025;-89
2023/12/14 11:59:10;;;;;;;62.88;37.13;;;;;;;;;;5013868;28;20033;-89
2023/12/14 12:01:37;;;;;;;83.72;53.35;;;;;;;;;;5031175;28;20021;-89
2023/12/14 12:04:08;;;;;;;87.47;44.78;;;;;;;;;;5014388;28;20017;-89
2023/12/14 12:06:33;;;;;;;69.32;41.70;;;;;;;;;;5017537;28;20594;-88
2023/12/14 12:08:59;;;;;;;57.88;35.60;;;;;;;;;;5017354;28;20032;-87
2023/12/14 12:11:27;;;;;;;59.67;34.70;;;;;;;;;;5014720;28;20017;-88
2023/12/14 12:13:53;;;;;;;62.20;41.67;;;;;;;;;;5020525;28;20021;-88
2023/12/14 12:16:19;;;;;;;72.70;44.60;;;;;;;;;;5026510;28;20309;-87
2023/12/14 12:18:44;;;;;;;52.53;30.98;;;;;;;;;;5014992;28;20110;-88
2023/12/14 12:21:11;;;;;;;63.47;42.25;;;;;;;;;;5020962;28;20041;-87
2023/12/14 12:23:36;;;;;;;79.05;48.65;;;;;;;;;;5039669;28;20513;-89
2023/12/14 12:26:02;;;;;;;71.82;48.25;;;;;;;;;;5021326;28;20017;-88
2023/12/14 12:28:27;;;;;;;77.55;55.40;;;;;;;;;;5018799;28;20017;-88
2023/12/14 12:30:53;;;;;;;59.50;44.28;;;;;;;;;;5038712;28;20434;-89
2023/12/14 12:33:18;;;;;;;56.03;38.25;;;;;;;;;;4999026;28;20085;-88
2023/12/14 12:35:43;;;;;;;51.45;36.95;;;;;;;;;;4996740;28;20038;-89
2023/12/14 12:38:08;;;;;;;42.70;28.30;;;;;;;;;;5011346;28;20033;-89
2023/12/14 12:40:34;;;;;;;90.80;60.88;;;;;;;;;;4994800;28;20033;-89
2023/12/14 12:42:59;;;;;;;46.22;32.80;;;;;;;;;;4996069;28;20071;-89
2023/12/14 12:45:27;;;;;;;64.35;42.17;;;;;;;;;;4981467;28;20158;-89
2023/12/14 12:47:53;;;;;;;122.82;71.35;;;;;;;;;;4985048;28;20057;-89
2023/12/14 12:50:20;;;;;;;103.95;65.85;;;;;;;;;;4973852;28;20022;-89
2023/12/14 12:52:48;;;;;;;70.43;48.45;;;;;;;;;;4979595;28;20041;-89
2023/12/14 12:55:14;;;;;;;101.93;64.33;;;;;;;;;;4988343;28;20025;-89
2023/12/14 12:57:41;;;;;;;142.45;93.10;;;;;;;;;;4988105;28;20467;-89
2023/12/14 13:00:11;;;;;;;69.90;47.20;;;;;;;;;;4988666;28;20038;-89
2023/12/14 13:02:36;;;;;;;53.33;39.88;;;;;;;;;;4975554;28;20022;-89
2023/12/14 13:05:02;;;;;;;102.57;62.15;;;;;;;;;;5012975;28;20042;-89
2023/12/14 13:07:29;;;;;;;109.65;75.68;;;;;;;;;;5012806;28;20022;-88
2023/12/14 13:09:54;;;;;;;119.97;81.72;;;;;;;;;;5012703;28;20024;-88
2023/12/14 13:12:19;;;;;;;137.48;93.60;;;;;;;;;;5012563;28;20044;-88
2023/12/14 13:14:45;;;;;;;113.55;77.90;;;;;;;;;;5002622;28;20030;-88
2023/12/14 13:17:10;;;;;;;62.88;43.42;;;;;;;;;;5021630;28;20061;-88
2023/12/14 13:19:36;;;;;;;67.90;45.28;;;;;;;;;;5021479;28;20080;-88
2023/12/14 13:22:01;;;;;;;122.85;68.05;;;;;;;;;;5029832;28;20044;-88
2023/12/14 13:24:27;;;;;;;92.97;59.45;;;;;;;;;;5021274;28;20059;-90
2023/12/14 13:26:52;;;;;;;320.55;185.95;;;;;;;;;;5030274;28;20034;-89
2023/12/14 13:29:18;;;;;;;178.20;103.60;;;;;;;;;;5020454;28;20026;-91
2023/12/14 13:31:43;;;;;;;87.05;51.13;;;;;;;;;;5035804;28;20030;-90
2023/12/14 13:34:08;;;;;;;74.68;46.38;;;;;;;;;;5017277;28;20033;-90
2023/12/14 13:36:34;;;;;;;198.77;102.05;;;;;;;;;;5016222;28;20072;-90
2023/12/14 13:39:01;;;;;;;240.50;116.13;;;;;;;;;;5014715;28;20022;-90
2023/12/14 13:41:27;;;;;;;281.30;132.45;;;;;;;;;;5012196;28;20076;-89
2023/12/14 13:43:52;;;;;;;49.33;37.65;;;;;;;;;;5011525;28;20017;-90
2023/12/14 13:46:17;;;;;;;58.75;43.72;;;;;;;;;;5029976;28;20021;-90
2023/12/14 13:48:43;;;;;;;71.78;47.88;;;;;;;;;;5011180;28;20022;-90
2023/12/14 13:51:10;;;;;;;107.30;58.33;;;;;;;;;;5028997;28;20326;-90
2023/12/14 13:53:35;;;;;;;144.55;76.25;;;;;;;;;;5028895;28;20052;-90
2023/12/14 13:56:00;;;;;;;301.00;158.30;;;;;;;;;;5012685;28;20025;-91